sensor_id;sensor_type;location;lat;lon;timestamp;temperature;humidity
18868;DHT22;9563;49.240;9.088;2023-04-25T05:00:54;8.20;99.90
18868;DHT22;9563;49.240;9.088;2023-04-25T05:03:21;8.30;99.90
18868;DHT22;9563;49.240;9.088;2023-04-25T05:05:48;8.20;99.90
18868;DHT22;9563;49.240;9.088;2023-04-25T05:08:15;8.20;99.90
18868;DHT22;9563;49.240;9.088;2023-04-25T05:10:42;8.10;99.90
18868;DHT22;9563;49.240;9.088;2023-04-25T05:13:08;8.10;99.90
18868;DHT22;9563;49.240;9.088;2023-04-25T05:15:35;8.10;99.90
18868;DHT22;9563;49.240;9.088;2023-04-25T05:18:04;8.10;99.90
18868;DHT22;9563;49.240;9.088;2023-04-25T05:20:31;8.10;99.90
18868;DHT22;9563;49.240;9.088;2023-04-25T05:22:57;8.20;99.90
18868;DHT22;9563;49.240;9.088;2023-04-25T05:25:25;8.20;99.90
18868;DHT22;9563;49.240;9.088;2023-04-25T05:27:52;8.20;99.90
18868;DHT22;9563;49.240;9.088;2023-04-25T05:30:19;8.30;99.90
18868;DHT22;9563;49.240;9.088;2023-04-25T05:32:46;8.40;99.90
18868;DHT22;9563;49.240;9.088;2023-04-25T05:35:15;8.40;99.90
18868;DHT22;9563;49.240;9.088;2023-04-25T05:37:41;8.50;99.90
18868;DHT22;9563;49.240;9.088;2023-04-25T05:40:09;8.50;99.90
18868;DHT22;9563;49.240;9.088;2023-04-25T05:42:36;8.60;99.90
18868;DHT22;9563;49.240;9.088;2023-04-25T05:45:04;8.60;99.90
18868;DHT22;9563;49.240;9.088;2023-04-25T05:47:30;8.60;99.90
18868;DHT22;9563;49.240;9.088;2023-04-25T05:49:57;8.70;99.90
18868;DHT22;9563;49.240;9.088;2023-04-25T05:52:26;8.70;99.90
18868;DHT22;9563;49.240;9.088;2023-04-25T05:54:53;8.80;99.90
18868;DHT22;9563;49.240;9.088;2023-04-25T05:57:21;8.70;99.90
18868;DHT22;9563;49.240;9.088;2023-04-25T05:59:48;8.80;99.90
18868;DHT22;9563;49.240;9.088;2023-04-25T06:02:15;8.80;99.90
18868;DHT22;9563;49.240;9.088;2023-04-25T06:04:41;8.90;99.90
18868;DHT22;9563;49.240;9.088;2023-04-25T06:07:08;8.90;99.90
18868;DHT22;9563;49.240;9.088;2023-04-25T06:09:36;8.90;99.90
18868;DHT22;9563;49.240;9.088;2023-04-25T06:12:04;9.00;99.90
18868;DHT22;9563;49.240;9.088;2023-04-25T06:14:31;9.00;99.90
18868;DHT22;9563;49.240;9.088;2023-04-25T06:16:59;9.10;99.90
18868;DHT22;9563;49.240;9.088;2023-04-25T06:19:31;9.20;99.90
18868;DHT22;9563;49.240;9.088;2023-04-25T06:21:58;9.30;99.90
18868;DHT22;9563;49.240;9.088;2023-04-25T06:24:25;9.30;99.90
18868;DHT22;9563;49.240;9.088;2023-04-25T06:26:53;9.40;99.90
18868;DHT22;9563;49.240;9.088;2023-04-25T06:29:21;9.40;99.90
18868;DHT22;9563;49.240;9.088;2023-04-25T06:31:47;9.50;99.90
18868;DHT22;9563;49.240;9.088;2023-04-25T06:34:15;9.60;99.90
18868;DHT22;9563;49.240;9.088;2023-04-25T06:36:42;9.70;99.90
18868;DHT22;9563;49.240;9.088;2023-04-25T06:39:10;9.80;99.90
18868;DHT22;9563;49.240;9.088;2023-04-25T06:41:37;9.90;99.90
18868;DHT22;9563;49.240;9.088;2023-04-25T06:44:05;9.90;99.90
18868;DHT22;9563;49.240;9.088;2023-04-25T06:46:31;10.00;99.90
18868;DHT22;9563;49.240;9.088;2023-04-25T06:48:58;10.00;99.90
18868;DHT22;9563;49.240;9.088;2023-04-25T06:51:25;10.00;99.90
18868;DHT22;9563;49.240;9.088;2023-04-25T06:53:54;10.00;99.90
18868;DHT22;9563;49.240;9.088;2023-04-25T06:56:21;10.00;99.90
18868;DHT22;9563;49.240;9.088;2023-04-25T06:58:48;10.10;99.90
18868;DHT22;9563;49.240;9.088;2023-04-25T07:01:17;10.00;99.90
18868;DHT22;9563;49.240;9.088;2023-04-25T07:03:43;10.00;99.90
18868;DHT22;9563;49.240;9.088;2023-04-25T07:06:10;10.00;99.90
18868;DHT22;9563;49.240;9.088;2023-04-25T07:08:37;10.00;99.90
18868;DHT22;9563;49.240;9.088;2023-04-25T07:11:04;10.00;99.90
18868;DHT22;9563;49.240;9.088;2023-04-25T07:13:30;10.10;99.90
18868;DHT22;9563;49.240;9.088;2023-04-25T07:15:57;10.10;99.90
18868;DHT22;9563;49.240;9.088;2023-04-25T07:18:25;10.10;99.90
18868;DHT22;9563;49.240;9.088;2023-04-25T07:20:52;10.20;99.90
18868;DHT22;9563;49.240;9.088;2023-04-25T07:23:19;10.20;99.90
18868;DHT22;9563;49.240;9.088;2023-04-25T07:25:46;10.30;99.90
18868;DHT22;9563;49.240;9.088;2023-04-25T07:28:13;10.30;99.90
18868;DHT22;9563;49.240;9.088;2023-04-25T07:30:40;10.30;99.90
18868;DHT22;9563;49.240;9.088;2023-04-25T07:33:07;10.30;99.90
18868;DHT22;9563;49.240;9.088;2023-04-25T07:35:35;10.30;99.90
18868;DHT22;9563;49.240;9.088;2023-04-25T07:38:02;10.30;99.90
18868;DHT22;9563;49.240;9.088;2023-04-25T07:40:29;10.30;99.90
18868;DHT22;9563;49.240;9.088;2023-04-25T07:42:56;10.30;99.90
18868;DHT22;9563;49.240;9.088;2023-04-25T07:45:23;10.40;99.90
18868;DHT22;9563;49.240;9.088;2023-04-25T07:47:50;10.50;99.90
18868;DHT22;9563;49.240;9.088;2023-04-25T07:50:17;10.50;99.90
18868;DHT22;9563;49.240;9.088;2023-04-25T07:52:45;10.60;99.90
18868;DHT22;9563;49.240;9.088;2023-04-25T07:55:12;10.60;99.90
18868;DHT22;9563;49.240;9.088;2023-04-25T07:57:39;10.60;99.90
18868;DHT22;9563;49.240;9.088;2023-04-25T08:00:07;10.60;99.90
18868;DHT22;9563;49.240;9.088;2023-04-25T08:02:35;10.60;99.90
18868;DHT22;9563;49.240;9.088;2023-04-25T08:05:02;10.60;99.90
18868;DHT22;9563;49.240;9.088;2023-04-25T08:07:29;10.60;99.90
18868;DHT22;9563;49.240;9.088;2023-04-25T08:09:57;10.60;99.90
18868;DHT22;9563;49.240;9.088;2023-04-25T08:12:24;10.50;99.90
18868;DHT22;9563;49.240;9.088;2023-04-25T08:14:51;10.50;99.90
18868;DHT22;9563;49.240;9.088;2023-04-25T08:17:18;10.50;99.90
18868;DHT22;9563;49.240;9.088;2023-04-25T08:19:45;10.50;99.90
18868;DHT22;9563;49.240;9.088;2023-04-25T08:22:12;10.50;99.90
18868;DHT22;9563;49.240;9.088;2023-04-25T08:24:40;10.60;99.90
18868;DHT22;9563;49.240;9.088;2023-04-25T08:27:08;10.50;99.90
18868;DHT22;9563;49.240;9.088;2023-04-25T08:29:35;10.60;99.90
18868;DHT22;9563;49.240;9.088;2023-04-25T08:32:02;10.60;99.90
18868;DHT22;9563;49.240;9.088;2023-04-25T08:34:29;10.70;99.90
18868;DHT22;9563;49.240;9.088;2023-04-25T08:36:55;10.70;99.90
18868;DHT22;9563;49.240;9.088;2023-04-25T08:39:22;10.80;99.90
18868;DHT22;9563;49.240;9.088;2023-04-25T08:41:49;10.90;99.90
18868;DHT22;9563;49.240;9.088;2023-04-25T08:44:19;11.00;99.90
18868;DHT22;9563;49.240;9.088;2023-04-25T08:46:47;11.00;99.90
18868;DHT22;9563;49.240;9.088;2023-04-25T08:49:16;11.00;99.90
18868;DHT22;9563;49.240;9.088;2023-04-25T08:51:45;11.00;99.90
18868;DHT22;9563;49.240;9.088;2023-04-25T08:54:14;11.00;99.90
18868;DHT22;9563;49.240;9.088;2023-04-25T08:56:44;11.00;99.90
18868;DHT22;9563;49.240;9.088;2023-04-25T08:59:12;11.00;99.90
18868;DHT22;9563;49.240;9.088;2023-04-25T09:01:40;10.90;99.90
18868;DHT22;9563;49.240;9.088;2023-04-25T09:04:07;11.00;99.90
18868;DHT22;9563;49.240;9.088;2023-04-25T09:06:34;11.00;99.90
18868;DHT22;9563;49.240;9.088;2023-04-25T09:09:05;11.10;99.90
18868;DHT22;9563;49.240;9.088;2023-04-25T09:11:33;11.20;99.90
18868;DHT22;9563;49.240;9.088;2023-04-25T09:14:11;11.30;99.90
18868;DHT22;9563;49.240;9.088;2023-04-25T09:17:01;11.30;99.90
18868;DHT22;9563;49.240;9.088;2023-04-25T09:19:30;11.30;99.90
18868;DHT22;9563;49.240;9.088;2023-04-25T09:21:58;11.30;99.90
18868;DHT22;9563;49.240;9.088;2023-04-25T09:24:36;11.30;99.90
18868;DHT22;9563;49.240;9.088;2023-04-25T09:27:04;11.30;99.90
18868;DHT22;9563;49.240;9.088;2023-04-25T09:29:32;11.30;99.90
18868;DHT22;9563;49.240;9.088;2023-04-25T09:32:19;11.30;99.90
18868;DHT22;9563;49.240;9.088;2023-04-25T09:34:47;11.30;99.90
18868;DHT22;9563;49.240;9.088;2023-04-25T09:37:18;11.50;99.90
18868;DHT22;9563;49.240;9.088;2023-04-25T09:39:46;11.60;99.90
18868;DHT22;9563;49.240;9.088;2023-04-25T09:42:14;11.70;99.90
18868;DHT22;9563;49.240;9.088;2023-04-25T09:44:43;11.90;99.90
18868;DHT22;9563;49.240;9.088;2023-04-25T09:47:11;11.80;99.90
18868;DHT22;9563;49.240;9.088;2023-04-25T09:49:41;11.60;99.90
18868;DHT22;9563;49.240;9.088;2023-04-25T09:52:09;11.50;99.90
18868;DHT22;9563;49.240;9.088;2023-04-25T09:54:36;11.50;99.90
18868;DHT22;9563;49.240;9.088;2023-04-25T09:57:10;11.60;99.90
18868;DHT22;9563;49.240;9.088;2023-04-25T09:59:39;11.80;99.90
18868;DHT22;9563;49.240;9.088;2023-04-25T10:02:09;12.00;99.90
18868;DHT22;9563;49.240;9.088;2023-04-25T10:04:38;12.30;99.90
18868;DHT22;9563;49.240;9.088;2023-04-25T10:07:07;12.40;99.90
18868;DHT22;9563;49.240;9.088;2023-04-25T10:09:37;12.50;99.90
18868;DHT22;9563;49.240;9.088;2023-04-25T10:12:05;12.40;99.90
18868;DHT22;9563;49.240;9.088;2023-04-25T10:14:33;12.40;99.90
18868;DHT22;9563;49.240;9.088;2023-04-25T10:17:00;12.30;99.90
18868;DHT22;9563;49.240;9.088;2023-04-25T10:19:27;12.30;99.90
18868;DHT22;9563;49.240;9.088;2023-04-25T10:22:02;12.40;99.90
18868;DHT22;9563;49.240;9.088;2023-04-25T10:24:31;12.30;99.90
18868;DHT22;9563;49.240;9.088;2023-04-25T10:26:58;12.30;99.90
18868;DHT22;9563;49.240;9.088;2023-04-25T10:29:27;12.50;99.90
18868;DHT22;9563;49.240;9.088;2023-04-25T10:31:54;12.90;99.90
18868;DHT22;9563;49.240;9.088;2023-04-25T10:34:24;13.20;99.90
18868;DHT22;9563;49.240;9.088;2023-04-25T10:36:53;13.70;99.90
18868;DHT22;9563;49.240;9.088;2023-04-25T10:39:24;14.10;99.90
18868;DHT22;9563;49.240;9.088;2023-04-25T10:41:57;14.10;99.90
18868;DHT22;9563;49.240;9.088;2023-04-25T10:44:26;14.10;99.90
18868;DHT22;9563;49.240;9.088;2023-04-25T10:46:55;14.20;99.90
18868;DHT22;9563;49.240;9.088;2023-04-25T10:49:30;14.20;99.90
18868;DHT22;9563;49.240;9.088;2023-04-25T10:52:13;14.20;99.90
18868;DHT22;9563;49.240;9.088;2023-04-25T10:54:41;14.80;99.90
18868;DHT22;9563;49.240;9.088;2023-04-25T10:57:31;15.00;99.90
18868;DHT22;9563;49.240;9.088;2023-04-25T11:00:00;15.30;99.90
18868;DHT22;9563;49.240;9.088;2023-04-25T11:02:30;15.70;99.90
18868;DHT22;9563;49.240;9.088;2023-04-25T11:04:57;15.70;99.90
18868;DHT22;9563;49.240;9.088;2023-04-25T11:07:32;15.30;99.90
18868;DHT22;9563;49.240;9.088;2023-04-25T11:10:02;14.90;99.90
18868;DHT22;9563;49.240;9.088;2023-04-25T11:12:32;14.60;99.90
18868;DHT22;9563;49.240;9.088;2023-04-25T11:15:00;14.00;99.90
18868;DHT22;9563;49.240;9.088;2023-04-25T11:17:28;14.10;99.90
18868;DHT22;9563;49.240;9.088;2023-04-25T11:19:55;14.10;99.90
18868;DHT22;9563;49.240;9.088;2023-04-25T11:22:22;14.30;99.90
18868;DHT22;9563;49.240;9.088;2023-04-25T11:24:49;14.40;99.90
18868;DHT22;9563;49.240;9.088;2023-04-25T11:27:17;14.40;99.90
18868;DHT22;9563;49.240;9.088;2023-04-25T11:29:45;14.10;99.90
18868;DHT22;9563;49.240;9.088;2023-04-25T11:32:15;14.00;99.90
18868;DHT22;9563;49.240;9.088;2023-04-25T11:34:44;13.80;99.90
18868;DHT22;9563;49.240;9.088;2023-04-25T11:37:11;13.50;99.90
18868;DHT22;9563;49.240;9.088;2023-04-25T11:39:43;13.50;99.90
18868;DHT22;9563;49.240;9.088;2023-04-25T11:42:11;13.10;99.90
18868;DHT22;9563;49.240;9.088;2023-04-25T11:44:39;12.80;99.90
18868;DHT22;9563;49.240;9.088;2023-04-25T11:47:07;12.70;99.90
18868;DHT22;9563;49.240;9.088;2023-04-25T11:49:35;12.80;99.90
18868;DHT22;9563;49.240;9.088;2023-04-25T11:52:02;12.60;99.90
18868;DHT22;9563;49.240;9.088;2023-04-25T11:54:29;12.60;99.90
18868;DHT22;9563;49.240;9.088;2023-04-25T11:56:56;12.60;99.90
18868;DHT22;9563;49.240;9.088;2023-04-25T11:59:24;12.80;99.90
18868;DHT22;9563;49.240;9.088;2023-04-25T12:01:52;12.80;99.90
18868;DHT22;9563;49.240;9.088;2023-04-25T12:04:22;12.80;99.90
18868;DHT22;9563;49.240;9.088;2023-04-25T12:06:53;12.80;99.90
18868;DHT22;9563;49.240;9.088;2023-04-25T12:09:28;12.60;99.90
18868;DHT22;9563;49.240;9.088;2023-04-25T12:11:56;12.70;99.90
18868;DHT22;9563;49.240;9.088;2023-04-25T12:14:25;13.10;99.90
18868;DHT22;9563;49.240;9.088;2023-04-25T12:16:54;13.30;99.90
18868;DHT22;9563;49.240;9.088;2023-04-25T12:19:22;13.40;99.90
18868;DHT22;9563;49.240;9.088;2023-04-25T12:21:50;13.30;99.90
18868;DHT22;9563;49.240;9.088;2023-04-25T12:24:18;13.20;99.90
18868;DHT22;9563;49.240;9.088;2023-04-25T12:26:50;13.10;99.90
18868;DHT22;9563;49.240;9.088;2023-04-25T12:29:21;12.90;99.90
18868;DHT22;9563;49.240;9.088;2023-04-25T12:31:49;12.70;99.90
18868;DHT22;9563;49.240;9.088;2023-04-25T12:34:16;12.60;99.90
18868;DHT22;9563;49.240;9.088;2023-04-25T12:36:45;12.60;99.90
18868;DHT22;9563;49.240;9.088;2023-04-25T12:39:15;12.50;99.90
18868;DHT22;9563;49.240;9.088;2023-04-25T12:41:42;12.50;99.90
18868;DHT22;9563;49.240;9.088;2023-04-25T12:44:10;12.60;99.90
18868;DHT22;9563;49.240;9.088;2023-04-25T12:46:37;13.10;99.90
18868;DHT22;9563;49.240;9.088;2023-04-25T12:49:04;13.90;99.90
18868;DHT22;9563;49.240;9.088;2023-04-25T12:51:31;14.50;99.90
18868;DHT22;9563;49.240;9.088;2023-04-25T12:54:00;15.00;99.90
18868;DHT22;9563;49.240;9.088;2023-04-25T12:56:27;15.00;99.90
18868;DHT22;9563;49.240;9.088;2023-04-25T12:58:54;14.90;99.90
18868;DHT22;9563;49.240;9.088;2023-04-25T13:01:21;14.70;99.90
18868;DHT22;9563;49.240;9.088;2023-04-25T13:03:48;14.50;99.90
18868;DHT22;9563;49.240;9.088;2023-04-25T13:06:15;14.40;99.90
18868;DHT22;9563;49.240;9.088;2023-04-25T13:08:42;14.40;99.90
18868;DHT22;9563;49.240;9.088;2023-04-25T13:11:11;14.00;99.90
18868;DHT22;9563;49.240;9.088;2023-04-25T13:13:38;13.70;99.90
18868;DHT22;9563;49.240;9.088;2023-04-25T13:16:06;13.50;99.90
18868;DHT22;9563;49.240;9.088;2023-04-25T13:18:33;14.20;99.90
18868;DHT22;9563;49.240;9.088;2023-04-25T13:21:00;14.50;99.90
18868;DHT22;9563;49.240;9.088;2023-04-25T13:23:29;15.10;99.90
18868;DHT22;9563;49.240;9.088;2023-04-25T13:25:56;15.40;99.90
18868;DHT22;9563;49.240;9.088;2023-04-25T13:28:25;15.50;99.90
18868;DHT22;9563;49.240;9.088;2023-04-25T13:30:52;15.70;99.90
18868;DHT22;9563;49.240;9.088;2023-04-25T13:33:19;15.90;99.90
18868;DHT22;9563;49.240;9.088;2023-04-25T13:35:47;16.10;99.90
18868;DHT22;9563;49.240;9.088;2023-04-25T13:38:20;15.80;99.90
18868;DHT22;9563;49.240;9.088;2023-04-25T13:40:47;15.20;99.90
18868;DHT22;9563;49.240;9.088;2023-04-25T13:43:15;14.80;99.90
18868;DHT22;9563;49.240;9.088;2023-04-25T13:45:43;14.70;99.90
18868;DHT22;9563;49.240;9.088;2023-04-25T13:48:10;14.40;99.90
18868;DHT22;9563;49.240;9.088;2023-04-25T13:50:37;14.30;99.90
18868;DHT22;9563;49.240;9.088;2023-04-25T13:53:04;13.90;99.90
18868;DHT22;9563;49.240;9.088;2023-04-25T13:55:31;13.80;99.90
18868;DHT22;9563;49.240;9.088;2023-04-25T13:57:57;13.80;99.90
18868;DHT22;9563;49.240;9.088;2023-04-25T14:00:25;13.90;99.90
18868;DHT22;9563;49.240;9.088;2023-04-25T14:02:53;13.80;99.90
18868;DHT22;9563;49.240;9.088;2023-04-25T14:05:21;14.30;99.90
18868;DHT22;9563;49.240;9.088;2023-04-25T14:07:48;15.00;99.90
18868;DHT22;9563;49.240;9.088;2023-04-25T14:10:15;15.40;99.90
18868;DHT22;9563;49.240;9.088;2023-04-25T14:12:50;15.60;99.90
18868;DHT22;9563;49.240;9.088;2023-04-25T14:15:17;15.90;99.90
18868;DHT22;9563;49.240;9.088;2023-04-25T14:17:44;16.00;99.90
18868;DHT22;9563;49.240;9.088;2023-04-25T14:20:13;15.90;99.90
18868;DHT22;9563;49.240;9.088;2023-04-25T14:22:40;16.10;99.90
18868;DHT22;9563;49.240;9.088;2023-04-25T14:25:09;16.10;99.90
18868;DHT22;9563;49.240;9.088;2023-04-25T14:27:36;16.00;99.90
18868;DHT22;9563;49.240;9.088;2023-04-25T14:30:06;16.20;99.90
18868;DHT22;9563;49.240;9.088;2023-04-25T14:32:34;16.20;99.90
18868;DHT22;9563;49.240;9.088;2023-04-25T14:35:01;16.30;99.90
18868;DHT22;9563;49.240;9.088;2023-04-25T14:37:28;16.40;99.90
18868;DHT22;9563;49.240;9.088;2023-04-25T14:39:55;16.40;99.90
18868;DHT22;9563;49.240;9.088;2023-04-25T14:42:22;16.50;99.90
18868;DHT22;9563;49.240;9.088;2023-04-25T14:44:49;16.70;99.90
18868;DHT22;9563;49.240;9.088;2023-04-25T14:47:17;16.80;99.90
18868;DHT22;9563;49.240;9.088;2023-04-25T14:49:44;17.00;99.90
18868;DHT22;9563;49.240;9.088;2023-04-25T14:52:16;16.90;99.90
18868;DHT22;9563;49.240;9.088;2023-04-25T14:54:43;17.10;99.90
18868;DHT22;9563;49.240;9.088;2023-04-25T14:57:10;16.80;99.90
18868;DHT22;9563;49.240;9.088;2023-04-25T14:59:36;16.50;99.90
18868;DHT22;9563;49.240;9.088;2023-04-25T15:02:04;15.80;99.90
18868;DHT22;9563;49.240;9.088;2023-04-25T15:04:32;15.30;99.90
18868;DHT22;9563;49.240;9.088;2023-04-25T15:06:59;15.00;99.90
18868;DHT22;9563;49.240;9.088;2023-04-25T15:09:26;14.90;99.90
18868;DHT22;9563;49.240;9.088;2023-04-25T15:11:53;14.80;99.90
18868;DHT22;9563;49.240;9.088;2023-04-25T15:14:20;14.70;99.90
18868;DHT22;9563;49.240;9.088;2023-04-25T15:16:47;14.40;99.90
18868;DHT22;9563;49.240;9.088;2023-04-25T15:19:14;14.20;99.90
18868;DHT22;9563;49.240;9.088;2023-04-25T15:21:42;14.10;99.90
18868;DHT22;9563;49.240;9.088;2023-04-25T15:24:10;13.90;99.90
18868;DHT22;9563;49.240;9.088;2023-04-25T15:26:37;13.80;99.90
18868;DHT22;9563;49.240;9.088;2023-04-25T15:29:04;13.70;99.90
18868;DHT22;9563;49.240;9.088;2023-04-25T15:31:32;13.80;99.90
18868;DHT22;9563;49.240;9.088;2023-04-25T15:33:59;13.90;99.90
18868;DHT22;9563;49.240;9.088;2023-04-25T15:36:25;14.00;99.90
18868;DHT22;9563;49.240;9.088;2023-04-25T15:38:54;14.00;99.90
18868;DHT22;9563;49.240;9.088;2023-04-25T15:41:21;13.70;99.90
18868;DHT22;9563;49.240;9.088;2023-04-25T15:43:47;13.50;99.90
18868;DHT22;9563;49.240;9.088;2023-04-25T15:46:14;13.20;99.90
18868;DHT22;9563;49.240;9.088;2023-04-25T15:48:41;13.10;99.90
18868;DHT22;9563;49.240;9.088;2023-04-25T15:51:09;13.10;99.90
18868;DHT22;9563;49.240;9.088;2023-04-25T15:53:36;13.00;99.90
18868;DHT22;9563;49.240;9.088;2023-04-25T15:56:04;12.90;99.90
18868;DHT22;9563;49.240;9.088;2023-04-25T15:58:31;12.90;99.90
18868;DHT22;9563;49.240;9.088;2023-04-25T16:00:58;12.90;99.90
18868;DHT22;9563;49.240;9.088;2023-04-25T16:03:25;12.90;99.90
18868;DHT22;9563;49.240;9.088;2023-04-25T16:05:52;12.90;99.90
18868;DHT22;9563;49.240;9.088;2023-04-25T16:08:19;12.90;99.90
18868;DHT22;9563;49.240;9.088;2023-04-25T16:10:46;12.80;99.90
18868;DHT22;9563;49.240;9.088;2023-04-25T16:13:15;12.70;99.90
18868;DHT22;9563;49.240;9.088;2023-04-25T16:15:41;12.60;99.90
18868;DHT22;9563;49.240;9.088;2023-04-25T16:18:08;12.60;99.90
18868;DHT22;9563;49.240;9.088;2023-04-25T16:20:35;12.50;99.90
18868;DHT22;9563;49.240;9.088;2023-04-25T16:23:02;12.50;99.90
18868;DHT22;9563;49.240;9.088;2023-04-25T16:25:29;12.40;99.90
18868;DHT22;9563;49.240;9.088;2023-04-25T16:27:56;12.40;99.90
18868;DHT22;9563;49.240;9.088;2023-04-25T16:30:24;12.30;99.90
18868;DHT22;9563;49.240;9.088;2023-04-25T16:32:51;12.10;99.90
18868;DHT22;9563;49.240;9.088;2023-04-25T16:35:21;12.00;99.90
18868;DHT22;9563;49.240;9.088;2023-04-25T16:37:49;12.00;99.90
18868;DHT22;9563;49.240;9.088;2023-04-25T16:40:16;11.90;99.90
18868;DHT22;9563;49.240;9.088;2023-04-25T16:42:43;11.80;99.90
18868;DHT22;9563;49.240;9.088;2023-04-25T16:45:11;11.90;99.90
18868;DHT22;9563;49.240;9.088;2023-04-25T16:47:40;11.90;99.90
18868;DHT22;9563;49.240;9.088;2023-04-25T16:50:07;11.90;99.90
18868;DHT22;9563;49.240;9.088;2023-04-25T16:52:34;11.70;99.90
18868;DHT22;9563;49.240;9.088;2023-04-25T16:55:02;11.60;99.90
18868;DHT22;9563;49.240;9.088;2023-04-25T16:57:29;11.60;99.90
18868;DHT22;9563;49.240;9.088;2023-04-25T16:59:56;11.70;99.90
18868;DHT22;9563;49.240;9.088;2023-04-25T17:02:23;11.60;99.90
18868;DHT22;9563;49.240;9.088;2023-04-25T17:04:51;11.60;99.90
18868;DHT22;9563;49.240;9.088;2023-04-25T17:07:18;11.50;99.90
18868;DHT22;9563;49.240;9.088;2023-04-25T17:09:48;11.50;99.90
18868;DHT22;9563;49.240;9.088;2023-04-25T17:12:15;11.50;99.90
18868;DHT22;9563;49.240;9.088;2023-04-25T17:14:44;11.40;99.90
18868;DHT22;9563;49.240;9.088;2023-04-25T17:17:11;11.40;99.90
18868;DHT22;9563;49.240;9.088;2023-04-25T17:19:38;11.40;99.90
18868;DHT22;9563;49.240;9.088;2023-04-25T17:22:06;11.40;99.90
18868;DHT22;9563;49.240;9.088;2023-04-25T17:24:33;11.30;99.90
18868;DHT22;9563;49.240;9.088;2023-04-25T17:27:00;11.30;99.90
18868;DHT22;9563;49.240;9.088;2023-04-25T17:29:27;11.30;99.90
18868;DHT22;9563;49.240;9.088;2023-04-25T17:31:54;11.30;99.90
18868;DHT22;9563;49.240;9.088;2023-04-25T17:34:21;11.30;99.90
18868;DHT22;9563;49.240;9.088;2023-04-25T17:36:48;11.30;99.90
18868;DHT22;9563;49.240;9.088;2023-04-25T17:39:16;11.30;99.90
18868;DHT22;9563;49.240;9.088;2023-04-25T17:41:44;11.30;99.90
18868;DHT22;9563;49.240;9.088;2023-04-25T17:44:11;11.30;99.90
18868;DHT22;9563;49.240;9.088;2023-04-25T17:46:38;11.30;99.90
18868;DHT22;9563;49.240;9.088;2023-04-25T17:49:05;11.30;99.90
18868;DHT22;9563;49.240;9.088;2023-04-25T17:51:32;11.30;99.90
18868;DHT22;9563;49.240;9.088;2023-04-25T17:53:59;11.30;99.90
18868;DHT22;9563;49.240;9.088;2023-04-25T17:56:27;11.30;99.90
18868;DHT22;9563;49.240;9.088;2023-04-25T17:58:55;11.30;99.90
18868;DHT22;9563;49.240;9.088;2023-04-25T18:01:22;11.20;99.90
18868;DHT22;9563;49.240;9.088;2023-04-25T18:03:49;11.20;99.90
18868;DHT22;9563;49.240;9.088;2023-04-25T18:06:17;11.20;99.90
18868;DHT22;9563;49.240;9.088;2023-04-25T18:08:44;11.20;99.90
18868;DHT22;9563;49.240;9.088;2023-04-25T18:11:10;11.10;99.90
18868;DHT22;9563;49.240;9.088;2023-04-25T18:13:39;11.10;99.90
18868;DHT22;9563;49.240;9.088;2023-04-25T18:16:06;11.10;99.90
18868;DHT22;9563;49.240;9.088;2023-04-25T18:18:33;11.00;99.90
18868;DHT22;9563;49.240;9.088;2023-04-25T18:21:01;11.00;99.90
18868;DHT22;9563;49.240;9.088;2023-04-25T18:23:31;11.00;99.90
18868;DHT22;9563;49.240;9.088;2023-04-25T18:25:58;10.90;99.90
18868;DHT22;9563;49.240;9.088;2023-04-25T18:28:25;10.90;99.90
18868;DHT22;9563;49.240;9.088;2023-04-25T18:30:53;10.80;99.90
18868;DHT22;9563;49.240;9.088;2023-04-25T18:33:21;10.90;99.90
18868;DHT22;9563;49.240;9.088;2023-04-25T18:35:48;10.80;99.90
18868;DHT22;9563;49.240;9.088;2023-04-25T18:38:15;10.80;99.90
18868;DHT22;9563;49.240;9.088;2023-04-25T18:40:42;10.80;99.90
18868;DHT22;9563;49.240;9.088;2023-04-25T18:43:09;10.70;99.90
18868;DHT22;9563;49.240;9.088;2023-04-25T18:45:35;10.70;99.90
18868;DHT22;9563;49.240;9.088;2023-04-25T18:48:04;10.70;99.90
18868;DHT22;9563;49.240;9.088;2023-04-25T18:50:32;10.60;99.90
18868;DHT22;9563;49.240;9.088;2023-04-25T18:52:58;10.60;99.90
18868;DHT22;9563;49.240;9.088;2023-04-25T18:55:27;10.50;99.90
18868;DHT22;9563;49.240;9.088;2023-04-25T18:57:54;10.50;99.90
18868;DHT22;9563;49.240;9.088;2023-04-25T19:00:21;10.50;99.90
18868;DHT22;9563;49.240;9.088;2023-04-25T19:02:49;10.50;99.90
18868;DHT22;9563;49.240;9.088;2023-04-25T19:05:17;10.40;99.90
18868;DHT22;9563;49.240;9.088;2023-04-25T19:07:45;10.40;99.90
18868;DHT22;9563;49.240;9.088;2023-04-25T19:10:11;10.30;99.90
18868;DHT22;9563;49.240;9.088;2023-04-25T19:12:38;10.30;99.90
18868;DHT22;9563;49.240;9.088;2023-04-25T19:15:06;10.30;99.90
18868;DHT22;9563;49.240;9.088;2023-04-25T19:17:34;10.30;99.90
18868;DHT22;9563;49.240;9.088;2023-04-25T19:20:01;10.30;99.90
18868;DHT22;9563;49.240;9.088;2023-04-25T19:22:30;10.20;99.90
18868;DHT22;9563;49.240;9.088;2023-04-25T19:24:57;10.20;99.90
18868;DHT22;9563;49.240;9.088;2023-04-25T19:27:25;10.20;99.90
18868;DHT22;9563;49.240;9.088;2023-04-25T19:29:52;10.20;99.90
18868;DHT22;9563;49.240;9.088;2023-04-25T19:32:25;10.20;99.90
18868;DHT22;9563;49.240;9.088;2023-04-25T19:34:52;10.00;99.90
18868;DHT22;9563;49.240;9.088;2023-04-25T19:37:19;9.90;99.90
18868;DHT22;9563;49.240;9.088;2023-04-25T19:39:47;9.70;99.90
18868;DHT22;9563;49.240;9.088;2023-04-25T19:42:14;9.60;99.90
18868;DHT22;9563;49.240;9.088;2023-04-25T19:44:43;9.60;99.90
18868;DHT22;9563;49.240;9.088;2023-04-25T19:47:10;9.50;99.90
18868;DHT22;9563;49.240;9.088;2023-04-25T19:49:37;9.40;99.90
18868;DHT22;9563;49.240;9.088;2023-04-25T19:52:04;9.30;99.90
18868;DHT22;9563;49.240;9.088;2023-04-25T19:54:31;9.30;99.90
18868;DHT22;9563;49.240;9.088;2023-04-25T19:57:00;9.20;99.90
18868;DHT22;9563;49.240;9.088;2023-04-25T19:59:28;9.20;99.90
18868;DHT22;9563;49.240;9.088;2023-04-25T20:01:54;9.10;99.90
18868;DHT22;9563;49.240;9.088;2023-04-25T20:04:22;9.00;99.90
18868;DHT22;9563;49.240;9.088;2023-04-25T20:06:48;8.90;99.90
18868;DHT22;9563;49.240;9.088;2023-04-25T20:09:15;8.90;99.90
18868;DHT22;9563;49.240;9.088;2023-04-25T20:11:42;8.80;99.90
18868;DHT22;9563;49.240;9.088;2023-04-25T20:14:11;8.80;99.90
18868;DHT22;9563;49.240;9.088;2023-04-25T20:16:38;8.80;99.90
18868;DHT22;9563;49.240;9.088;2023-04-25T20:19:05;8.70;99.90
18868;DHT22;9563;49.240;9.088;2023-04-25T20:21:32;8.70;99.90
18868;DHT22;9563;49.240;9.088;2023-04-25T20:23:59;8.70;99.90
18868;DHT22;9563;49.240;9.088;2023-04-25T20:26:27;8.60;99.90
18868;DHT22;9563;49.240;9.088;2023-04-25T20:28:54;8.60;99.90
18868;DHT22;9563;49.240;9.088;2023-04-25T20:31:23;8.60;99.90
18868;DHT22;9563;49.240;9.088;2023-04-25T20:33:50;8.60;99.90
18868;DHT22;9563;49.240;9.088;2023-04-25T20:36:17;8.50;99.90
18868;DHT22;9563;49.240;9.088;2023-04-25T20:38:44;8.60;99.90
18868;DHT22;9563;49.240;9.088;2023-04-25T20:41:11;8.60;99.90
18868;DHT22;9563;49.240;9.088;2023-04-25T20:43:38;8.60;99.90
18868;DHT22;9563;49.240;9.088;2023-04-25T20:46:06;8.60;99.90
18868;DHT22;9563;49.240;9.088;2023-04-25T20:48:35;8.60;99.90
18868;DHT22;9563;49.240;9.088;2023-04-25T20:51:02;8.60;99.90
18868;DHT22;9563;49.240;9.088;2023-04-25T20:53:31;8.60;99.90